createdAt,value
2018-12-13T00:02:01.940Z,9.50
2018-12-13T00:04:33.404Z,9.08
2018-12-13T00:07:02.441Z,8.80
2018-12-13T00:09:31.376Z,8.63
2018-12-13T00:12:00.308Z,8.28
2018-12-13T00:14:29.276Z,8.10
2018-12-13T00:16:58.171Z,9.55
2018-12-13T00:19:27.235Z,7.90
2018-12-13T00:21:56.216Z,7.87
2018-12-13T00:24:25.116Z,10.85
2018-12-13T00:26:54.284Z,9.30
2018-12-13T00:29:23.265Z,8.43
2018-12-13T00:31:52.264Z,8.18
2018-12-13T00:34:21.215Z,8.03
2018-12-13T00:36:50.257Z,8.30
2018-12-13T00:39:19.116Z,7.50
2018-12-13T00:41:47.976Z,8.65
2018-12-13T00:44:16.878Z,8.05
2018-12-13T00:46:45.753Z,7.08
2018-12-13T00:49:14.726Z,6.55
2018-12-13T00:51:43.844Z,7.72
2018-12-13T00:54:12.726Z,7.57
2018-12-13T00:56:41.600Z,6.90
2018-12-13T00:59:10.506Z,7.20
2018-12-13T01:01:39.702Z,7.12
2018-12-13T01:04:08.595Z,6.65
2018-12-13T01:06:37.549Z,7.40
2018-12-13T01:09:07.023Z,7.65
2018-12-13T01:11:36.243Z,8.68
2018-12-13T01:14:05.300Z,7.28
2018-12-13T01:16:34.207Z,8.65
2018-12-13T01:19:03.186Z,7.53
2018-12-13T01:21:32.120Z,10.23
2018-12-13T01:24:01.046Z,7.58
2018-12-13T01:26:29.962Z,8.00
2018-12-13T01:28:58.881Z,6.78
2018-12-13T01:31:27.806Z,7.62
2018-12-13T01:33:56.696Z,8.13
2018-12-13T01:36:25.621Z,7.87
2018-12-13T01:38:54.557Z,8.45
2018-12-13T01:41:23.481Z,7.92
2018-12-13T01:43:52.350Z,8.43
2018-12-13T01:46:21.223Z,8.23
2018-12-13T01:48:50.224Z,8.40
2018-12-13T01:51:19.302Z,8.48
2018-12-13T01:53:48.234Z,8.00
2018-12-13T01:56:17.309Z,9.20
2018-12-13T01:58:47.236Z,8.55
2018-12-13T02:01:16.111Z,8.58
2018-12-13T02:03:45.105Z,9.43
2018-12-13T02:06:13.979Z,10.48
2018-12-13T02:08:43.088Z,9.98
2018-12-13T02:11:12.032Z,11.78
2018-12-13T02:13:40.900Z,9.83
2018-12-13T02:16:09.925Z,9.13
2018-12-13T02:18:39.654Z,9.70
2018-12-13T02:21:08.544Z,8.85
2018-12-13T02:23:37.755Z,9.50
2018-12-13T02:26:06.649Z,8.33
2018-12-13T02:28:35.547Z,9.80
2018-12-13T02:31:04.569Z,8.93
2018-12-13T02:33:33.600Z,9.70
2018-12-13T02:36:02.815Z,7.40
2018-12-13T02:38:31.776Z,8.30
2018-12-13T02:41:00.670Z,8.28
2018-12-13T02:43:29.593Z,8.58
2018-12-13T02:45:58.540Z,8.50
2018-12-13T02:48:27.431Z,8.43
2018-12-13T02:50:56.581Z,8.83
2018-12-13T02:53:25.532Z,9.63
2018-12-13T02:55:54.632Z,8.50
2018-12-13T02:58:23.532Z,8.33
2018-12-13T03:00:52.421Z,7.97
2018-12-13T03:03:21.320Z,8.85
2018-12-13T03:05:50.208Z,9.25
2018-12-13T03:08:19.147Z,8.38
2018-12-13T03:10:48.058Z,9.48
2018-12-13T03:13:16.912Z,8.53
2018-12-13T03:15:45.912Z,8.20
2018-12-13T03:18:16.989Z,9.35
2018-12-13T03:20:46.215Z,8.10
2018-12-13T03:23:15.125Z,9.18
2018-12-13T03:25:44.228Z,8.68
2018-12-13T03:28:13.281Z,8.40
2018-12-13T03:30:42.274Z,8.70
2018-12-13T03:33:11.267Z,8.95
2018-12-13T03:35:40.238Z,8.45
2018-12-13T03:38:09.136Z,8.28
2018-12-13T03:40:38.123Z,8.73
2018-12-13T03:43:07.230Z,8.10
2018-12-13T03:45:36.368Z,8.40
2018-12-13T03:48:05.246Z,8.33
2018-12-13T03:50:34.222Z,8.08
2018-12-13T03:53:03.109Z,8.73
2018-12-13T03:55:32.032Z,8.17
2018-12-13T03:58:00.891Z,8.28
2018-12-13T04:00:29.917Z,8.85
2018-12-13T04:02:58.939Z,8.83
2018-12-13T04:05:27.784Z,8.88
2018-12-13T04:07:56.765Z,8.93
2018-12-13T04:10:25.636Z,9.73
2018-12-13T04:12:54.637Z,9.33
2018-12-13T04:15:23.703Z,9.78
2018-12-13T04:17:52.569Z,8.63
2018-12-13T04:20:23.573Z,9.10
2018-12-13T04:22:52.489Z,9.23
2018-12-13T04:25:21.364Z,8.28
2018-12-13T04:27:50.269Z,8.53
2018-12-13T04:30:19.216Z,8.68
2018-12-13T04:32:48.756Z,11.18
2018-12-13T04:35:17.842Z,8.35
2018-12-13T04:37:46.738Z,10.08
2018-12-13T04:40:15.676Z,8.90
2018-12-13T04:42:44.695Z,9.23
2018-12-13T04:45:13.741Z,10.40
2018-12-13T04:47:42.706Z,11.05
2018-12-13T04:50:12.678Z,9.30
2018-12-13T04:52:41.716Z,9.90
2018-12-13T04:55:10.734Z,9.15
2018-12-13T04:57:39.896Z,9.15
2018-12-13T05:00:08.992Z,9.97
2018-12-13T05:02:37.951Z,9.60
2018-12-13T05:05:07.086Z,9.88
2018-12-13T05:07:41.523Z,10.70
2018-12-13T05:10:07.195Z,10.43
2018-12-13T05:12:36.330Z,10.23
2018-12-13T05:15:05.713Z,10.58
2018-12-13T05:17:34.613Z,10.70
2018-12-13T05:20:03.760Z,10.88
2018-12-13T05:22:32.668Z,10.38
2018-12-13T05:25:01.927Z,10.30
2018-12-13T05:27:30.809Z,10.30
2018-12-13T05:29:59.955Z,9.88
2018-12-13T05:32:28.944Z,12.68
2018-12-13T05:34:57.856Z,10.35
2018-12-13T05:37:26.760Z,11.33
2018-12-13T05:39:55.745Z,12.13
2018-12-13T05:42:24.761Z,11.30
2018-12-13T05:44:53.705Z,10.40
2018-12-13T05:47:22.648Z,10.70
2018-12-13T05:49:51.562Z,10.98
2018-12-13T05:52:20.534Z,12.00
2018-12-13T05:54:50.591Z,10.70
2018-12-13T05:57:19.545Z,10.43
2018-12-13T05:59:48.789Z,10.20
2018-12-13T06:02:17.675Z,10.23
2018-12-13T06:04:47.941Z,11.08
2018-12-13T06:07:18.117Z,11.28
2018-12-13T06:09:47.189Z,12.15
2018-12-13T06:12:16.110Z,10.75
2018-12-13T06:14:45.034Z,10.25
2018-12-13T06:17:13.947Z,9.48
2018-12-13T06:19:43.004Z,9.85
2018-12-13T06:22:11.986Z,9.43
2018-12-13T06:24:40.924Z,9.33
2018-12-13T06:27:10.015Z,9.83
2018-12-13T06:29:41.799Z,9.75
2018-12-13T06:32:09.901Z,11.40
2018-12-13T06:34:38.872Z,9.60
2018-12-13T06:37:07.705Z,9.48
2018-12-13T06:39:36.595Z,10.33
2018-12-13T06:42:05.483Z,9.53
2018-12-13T06:44:34.349Z,10.03
2018-12-13T06:47:03.262Z,9.35
2018-12-13T06:49:32.146Z,9.68
2018-12-13T06:52:01.047Z,11.40
2018-12-13T06:54:30.346Z,9.80
2018-12-13T06:57:00.588Z,9.93
2018-12-13T06:59:29.659Z,9.40
2018-12-13T07:01:58.544Z,9.83
2018-12-13T07:04:27.444Z,11.50
2018-12-13T07:06:56.381Z,10.23
2018-12-13T07:09:25.287Z,9.68
2018-12-13T07:11:54.329Z,9.70
2018-12-13T07:14:23.272Z,10.38
2018-12-13T07:16:52.164Z,10.65
2018-12-13T07:19:21.065Z,10.20
2018-12-13T07:21:50.008Z,10.48
2018-12-13T07:24:18.952Z,10.03
2018-12-13T07:26:47.897Z,11.40
2018-12-13T07:29:16.836Z,10.55
2018-12-13T07:31:46.199Z,11.30
2018-12-13T07:34:15.200Z,11.28
2018-12-13T07:36:44.051Z,11.25
2018-12-13T07:39:12.926Z,10.98
2018-12-13T07:41:41.816Z,10.78
2018-12-13T07:44:10.667Z,12.05
2018-12-13T07:46:39.719Z,9.80
2018-12-13T07:49:08.575Z,10.75
2018-12-13T07:51:37.463Z,11.25
2018-12-13T07:54:07.416Z,11.18
2018-12-13T07:56:36.303Z,11.50
2018-12-13T07:59:05.797Z,11.67
2018-12-13T08:01:34.653Z,10.35
2018-12-13T08:04:03.687Z,10.98
2018-12-13T08:06:32.618Z,11.05
2018-12-13T08:09:01.652Z,10.90
2018-12-13T08:11:31.631Z,11.48
2018-12-13T08:14:00.619Z,10.72
2018-12-13T08:16:29.601Z,11.22
2018-12-13T08:19:00.659Z,12.33
2018-12-13T08:21:31.604Z,11.25
2018-12-13T08:24:00.604Z,11.22
2018-12-13T08:26:29.534Z,11.53
2018-12-13T08:28:58.565Z,12.43
2018-12-13T08:31:27.492Z,11.73
2018-12-13T08:33:56.544Z,10.70
2018-12-13T08:36:25.549Z,10.88
2018-12-13T08:38:54.436Z,12.15
2018-12-13T08:41:23.401Z,11.77
2018-12-13T08:43:52.393Z,10.60
2018-12-13T08:46:36.460Z,11.43
2018-12-13T08:49:02.865Z,12.05
2018-12-13T08:51:31.723Z,12.18
2018-12-13T08:54:00.790Z,11.63
2018-12-13T08:56:29.864Z,12.88
2018-12-13T08:58:59.044Z,12.37
2018-12-13T09:01:29.054Z,12.35
2018-12-13T09:03:58.254Z,12.00
2018-12-13T09:06:27.330Z,11.68
2018-12-13T09:08:56.644Z,12.33
2018-12-13T09:11:25.713Z,11.63
2018-12-13T09:13:54.837Z,13.85
2018-12-13T09:16:24.147Z,13.45
2018-12-13T09:18:53.170Z,11.03
2018-12-13T09:21:24.225Z,11.97
2018-12-13T09:23:53.743Z,11.68
2018-12-13T09:26:22.809Z,13.08
2018-12-13T09:28:51.987Z,18.07
2018-12-13T09:31:21.049Z,45.30
2018-12-13T09:33:50.530Z,37.08
2018-12-13T09:36:19.597Z,18.70
2018-12-13T09:38:49.258Z,29.55
2018-12-13T09:41:22.881Z,32.42
2018-12-13T09:43:52.246Z,31.60
2018-12-13T09:46:21.360Z,24.50
2018-12-13T09:48:50.357Z,16.77
2018-12-13T09:51:20.307Z,37.73
2018-12-13T09:53:49.345Z,21.05
2018-12-13T09:59:08.994Z,13.15
2018-12-13T10:01:38.157Z,18.35
2018-12-13T10:04:07.214Z,24.85
2018-12-13T10:06:36.235Z,32.63
2018-12-13T10:09:07.480Z,30.20
2018-12-13T10:11:37.739Z,19.98
2018-12-13T10:14:06.831Z,52.08
2018-12-13T10:16:36.185Z,23.67
2018-12-13T10:19:05.244Z,16.37
2018-12-13T10:21:34.220Z,25.70
2018-12-13T10:24:03.468Z,50.50
2018-12-13T10:26:37.431Z,16.75
2018-12-13T10:29:11.054Z,22.60
2018-12-13T10:31:40.098Z,23.60
2018-12-13T10:34:09.089Z,15.50
2018-12-13T10:36:38.135Z,15.45
2018-12-13T10:39:08.458Z,27.25
2018-12-13T10:41:38.489Z,19.60
2018-12-13T10:44:07.542Z,27.50
2018-12-13T10:46:36.594Z,16.60
2018-12-13T10:49:05.548Z,16.87
2018-12-13T10:51:34.468Z,17.07
2018-12-13T10:54:03.730Z,12.50
2018-12-13T10:56:32.600Z,26.87
2018-12-13T10:59:01.713Z,26.33
2018-12-13T11:01:36.081Z,19.10
2018-12-13T11:04:05.441Z,18.05
2018-12-13T11:06:34.321Z,14.53
2018-12-13T11:09:03.845Z,12.13
2018-12-13T11:11:34.020Z,12.00
2018-12-13T11:14:03.030Z,11.15
2018-12-13T11:16:32.022Z,12.30
2018-12-13T11:19:00.992Z,12.80
2018-12-13T11:21:30.083Z,12.30
2018-12-13T11:23:59.135Z,12.10
2018-12-13T11:26:28.113Z,11.68
2018-12-13T11:29:34.514Z,12.03
2018-12-13T11:32:03.474Z,11.22
2018-12-13T11:34:32.415Z,11.63
2018-12-13T11:37:01.541Z,11.20
2018-12-13T11:39:30.488Z,11.70
2018-12-13T11:41:59.543Z,12.15
2018-12-13T11:44:28.460Z,12.03
2018-12-13T11:46:58.740Z,11.10
2018-12-13T11:49:27.608Z,11.88
2018-12-13T11:51:56.548Z,11.33
2018-12-13T11:54:44.428Z,12.77
2018-12-13T11:57:13.598Z,11.40
2018-12-13T11:59:42.551Z,11.97
2018-12-13T12:02:11.518Z,11.10
2018-12-13T12:04:40.427Z,11.00
2018-12-13T12:07:09.372Z,11.75
2018-12-13T12:09:38.339Z,11.30
2018-12-13T12:12:07.365Z,11.23
2018-12-13T12:14:36.400Z,10.32
2018-12-13T12:17:05.529Z,10.63
2018-12-13T12:19:34.508Z,10.03
2018-12-13T12:22:03.432Z,10.20
2018-12-13T12:24:32.314Z,10.40
2018-12-13T12:27:01.333Z,10.78
2018-12-13T12:29:30.229Z,11.30
2018-12-13T12:31:59.163Z,10.38
2018-12-13T12:34:28.177Z,10.48
2018-12-13T12:36:57.149Z,11.60
2018-12-13T12:39:26.312Z,11.22
2018-12-13T12:41:55.259Z,10.68
2018-12-13T12:44:26.213Z,10.45
2018-12-13T12:46:55.334Z,10.25
2018-12-13T12:49:25.307Z,10.88
2018-12-13T12:51:55.371Z,12.23
2018-12-13T12:54:24.434Z,10.38
2018-12-13T12:56:53.453Z,10.30
2018-12-13T12:59:22.465Z,10.98
2018-12-13T13:01:51.454Z,10.00
2018-12-13T13:04:20.432Z,10.95
2018-12-13T13:06:49.378Z,10.70
2018-12-13T13:09:18.295Z,9.73
2018-12-13T13:11:47.359Z,10.60
2018-12-13T13:14:16.400Z,10.00
2018-12-13T13:16:45.338Z,10.23
2018-12-13T13:19:14.476Z,10.65
2018-12-13T13:21:43.455Z,11.08
2018-12-13T13:24:12.512Z,9.83
2018-12-13T13:26:41.421Z,11.50
2018-12-13T13:29:10.373Z,10.70
2018-12-13T13:31:39.311Z,10.00
2018-12-13T13:34:08.238Z,10.55
2018-12-13T13:36:37.161Z,10.93
2018-12-13T13:39:07.971Z,10.03
2018-12-13T13:41:37.024Z,9.95
2018-12-13T13:44:05.973Z,10.82
2018-12-13T13:46:34.959Z,10.93
2018-12-13T13:49:04.093Z,11.18
2018-12-13T13:51:33.012Z,10.85
2018-12-13T13:54:02.009Z,9.85
2018-12-13T13:56:30.883Z,10.77
2018-12-13T13:58:59.925Z,10.55
2018-12-13T14:01:29.028Z,10.70
2018-12-13T14:03:57.964Z,9.45
2018-12-13T14:06:26.912Z,9.70
2018-12-13T14:08:55.830Z,11.38
2018-12-13T14:11:24.776Z,11.22
2018-12-13T14:13:53.712Z,11.70
2018-12-13T14:16:22.669Z,9.55
2018-12-13T14:18:51.631Z,9.68
2018-12-13T14:21:20.597Z,9.00
2018-12-13T14:23:50.200Z,11.35
2018-12-13T14:26:19.240Z,9.83
2018-12-13T14:28:48.264Z,9.80
2018-12-13T14:31:17.205Z,10.32
2018-12-13T14:33:46.173Z,10.03
2018-12-13T14:36:15.342Z,8.88
2018-12-13T14:38:44.619Z,10.48
2018-12-13T14:41:15.582Z,10.48
2018-12-13T14:43:50.319Z,11.20
2018-12-13T14:46:19.248Z,9.73
2018-12-13T14:48:48.254Z,10.20
2018-12-13T14:51:17.190Z,9.73
2018-12-13T14:53:46.255Z,9.83
2018-12-13T14:56:15.177Z,9.48
2018-12-13T14:58:44.173Z,10.55
2018-12-13T15:01:13.089Z,10.87
2018-12-13T15:03:42.180Z,11.12
2018-12-13T15:06:11.121Z,8.95
2018-12-13T15:08:40.113Z,9.50
2018-12-13T15:11:09.085Z,9.45
2018-12-13T15:13:37.957Z,9.95
2018-12-13T15:16:06.866Z,10.60
2018-12-13T15:18:35.931Z,8.90
2018-12-13T15:21:05.008Z,9.53
2018-12-13T15:23:34.051Z,9.63
2018-12-13T15:26:03.170Z,10.55
2018-12-13T15:28:32.209Z,10.75
2018-12-13T15:31:01.233Z,9.73
2018-12-13T15:33:31.164Z,9.78
2018-12-13T15:36:00.168Z,10.08
2018-12-13T15:38:29.078Z,9.53
2018-12-13T15:40:58.054Z,10.50
2018-12-13T15:43:27.005Z,10.60
2018-12-13T15:45:56.092Z,9.65
2018-12-13T15:48:25.871Z,10.63
2018-12-13T15:50:55.276Z,10.40
2018-12-13T15:53:24.642Z,9.75
2018-12-13T15:55:53.638Z,9.70
2018-12-13T15:58:22.521Z,9.20
2018-12-13T16:00:51.633Z,9.30
2018-12-13T16:03:20.620Z,9.98
2018-12-13T16:05:49.511Z,10.88
2018-12-13T16:08:18.703Z,10.25
2018-12-13T16:10:48.159Z,9.63
2018-12-13T16:13:17.055Z,10.65
2018-12-13T16:15:45.943Z,12.68
2018-12-13T16:18:14.832Z,10.80
2018-12-13T16:20:43.810Z,11.05
2018-12-13T16:23:13.248Z,9.10
2018-12-13T16:25:42.317Z,9.08
2018-12-13T16:28:11.379Z,10.80
2018-12-13T16:30:40.440Z,9.45
2018-12-13T16:33:09.416Z,10.20
2018-12-13T16:35:38.635Z,9.90
2018-12-13T16:38:07.909Z,10.13
2018-12-13T16:40:36.930Z,11.10
2018-12-13T16:43:05.938Z,9.93
2018-12-13T16:45:35.034Z,10.13
2018-12-13T16:48:03.969Z,10.90
2018-12-13T16:50:32.918Z,9.88
2018-12-13T16:53:01.888Z,11.53
2018-12-13T16:55:31.338Z,11.95
2018-12-13T16:58:01.390Z,11.60
2018-12-13T17:00:30.269Z,10.63
2018-12-13T17:03:00.068Z,10.63
2018-12-13T17:05:30.103Z,13.90
2018-12-13T17:07:59.385Z,11.00
2018-12-13T17:10:29.361Z,11.48
2018-12-13T17:12:58.343Z,10.72
2018-12-13T17:15:27.421Z,12.20
2018-12-13T17:17:56.452Z,9.90
2018-12-13T17:20:25.742Z,11.08
2018-12-13T17:22:55.736Z,10.40
2018-12-13T17:25:24.657Z,13.35
2018-12-13T17:27:53.800Z,11.30
2018-12-13T17:30:22.770Z,11.70
2018-12-13T17:32:51.661Z,10.10
2018-12-13T17:35:20.599Z,9.63
2018-12-13T17:37:49.514Z,9.75
2018-12-13T17:40:22.971Z,10.53
2018-12-13T17:42:50.007Z,9.85
2018-12-13T17:45:19.152Z,10.30
2018-12-13T17:47:47.992Z,10.18
2018-12-13T17:50:17.045Z,11.68
2018-12-13T17:52:46.140Z,9.23
2018-12-13T17:55:15.112Z,9.93
2018-12-13T17:57:44.051Z,10.20
2018-12-13T18:00:13.888Z,9.60
2018-12-13T18:02:42.833Z,10.03
2018-12-13T18:05:11.806Z,10.05
2018-12-13T18:07:41.003Z,9.60
2018-12-13T18:10:11.299Z,12.95
2018-12-13T18:12:40.329Z,12.45
2018-12-13T18:15:09.416Z,12.70
2018-12-13T18:17:39.721Z,10.82
2018-12-13T18:20:09.117Z,10.40
2018-12-13T18:22:38.137Z,12.17
2018-12-13T18:25:07.191Z,11.43
2018-12-13T18:27:36.381Z,11.05
2018-12-13T18:30:06.638Z,11.12
2018-12-13T18:32:36.979Z,12.40
2018-12-13T18:35:07.061Z,11.60
2018-12-13T18:37:36.053Z,11.48
2018-12-13T18:40:05.974Z,9.78
2018-12-13T18:42:34.949Z,11.57
2018-12-13T18:45:04.290Z,12.88
2018-12-13T18:47:33.336Z,11.70
2018-12-13T18:50:02.480Z,10.88
2018-12-13T18:52:31.584Z,12.07
2018-12-13T18:55:00.665Z,12.55
2018-12-13T18:57:29.665Z,10.10
2018-12-13T18:59:59.152Z,11.70
2018-12-13T19:02:28.682Z,13.08
2018-12-13T19:04:57.684Z,10.45
2018-12-13T19:07:27.677Z,11.03
2018-12-13T19:09:56.616Z,9.98
2018-12-13T19:12:25.670Z,10.75
2018-12-13T19:14:54.718Z,14.13
2018-12-13T19:17:24.893Z,11.20
2018-12-13T19:19:54.118Z,10.58
2018-12-13T19:22:23.036Z,10.82
2018-12-13T19:24:52.081Z,11.75
2018-12-13T19:27:21.006Z,11.88
2018-12-13T19:29:49.950Z,13.32
2018-12-13T19:32:18.948Z,10.78
2018-12-13T19:34:48.253Z,11.05
2018-12-13T19:37:18.450Z,11.00
2018-12-13T19:39:48.081Z,12.50
2018-12-13T19:42:17.015Z,9.83
2018-12-13T19:44:46.205Z,10.35
2018-12-13T19:47:15.144Z,12.25
2018-12-13T19:49:45.303Z,11.85
2018-12-13T19:52:14.207Z,9.68
2018-12-13T19:54:43.163Z,10.18
2018-12-13T19:57:13.507Z,10.18
2018-12-13T19:59:42.686Z,11.12
2018-12-13T20:02:11.661Z,11.87
2018-12-13T20:04:41.082Z,11.15
2018-12-13T20:07:10.017Z,10.98
2018-12-13T20:09:39.013Z,11.05
2018-12-13T20:12:08.596Z,11.68
2018-12-13T20:14:37.674Z,11.75
2018-12-13T20:17:07.785Z,10.72
2018-12-13T20:19:37.802Z,9.78
2018-12-13T20:22:06.776Z,12.10
2018-12-13T20:24:42.335Z,12.00
2018-12-13T20:27:11.342Z,12.45
2018-12-13T20:29:40.599Z,11.53
2018-12-13T20:32:09.616Z,11.97
2018-12-13T20:34:38.754Z,13.08
2018-12-13T20:37:07.851Z,12.25
2018-12-13T20:39:36.834Z,12.47
2018-12-13T20:42:05.965Z,12.20
2018-12-13T20:44:34.960Z,11.43
2018-12-13T20:47:05.198Z,12.43
2018-12-13T20:49:34.237Z,10.18
2018-12-13T20:52:03.297Z,9.53
2018-12-13T20:54:32.347Z,13.72
2018-12-13T20:57:01.371Z,12.07
2018-12-13T20:59:30.572Z,11.73
2018-12-13T21:02:00.483Z,11.15
2018-12-13T21:04:29.556Z,9.88
2018-12-13T21:07:03.729Z,10.78
2018-12-13T21:09:32.744Z,10.98
2018-12-13T21:12:03.259Z,10.13
2018-12-13T21:14:32.325Z,11.00
2018-12-13T21:17:01.916Z,10.80
2018-12-13T21:19:30.836Z,10.85
2018-12-13T21:21:59.772Z,10.23
2018-12-13T21:24:29.125Z,9.98
2018-12-13T21:26:58.101Z,10.70
2018-12-13T21:29:27.185Z,11.48
2018-12-13T21:31:56.260Z,11.53
2018-12-13T21:34:25.413Z,11.90
2018-12-13T21:36:54.568Z,10.38
2018-12-13T21:39:23.531Z,12.80
2018-12-13T21:41:52.842Z,12.35
2018-12-13T21:44:22.003Z,11.73
2018-12-13T21:46:51.158Z,11.60
2018-12-13T21:49:20.219Z,13.60
2018-12-13T21:51:49.324Z,12.18
2018-12-13T21:54:18.287Z,12.00
2018-12-13T21:56:49.327Z,13.72
2018-12-13T21:59:18.464Z,13.00
2018-12-13T22:01:47.567Z,11.10
2018-12-13T22:04:16.740Z,11.57
2018-12-13T22:06:46.784Z,11.75
2018-12-13T22:09:15.771Z,10.63
2018-12-13T22:11:44.989Z,11.12
2018-12-13T22:14:14.216Z,12.25
2018-12-13T22:16:43.147Z,11.78
2018-12-13T22:19:12.202Z,11.70
2018-12-13T22:21:41.248Z,11.33
2018-12-13T22:24:10.279Z,10.95
2018-12-13T22:26:39.309Z,11.40
2018-12-13T22:29:08.260Z,10.50
2018-12-13T22:31:37.239Z,11.83
2018-12-13T22:34:06.450Z,11.80
2018-12-13T22:36:35.791Z,12.10
2018-12-13T22:39:06.408Z,11.93
2018-12-13T22:41:35.571Z,13.45
2018-12-13T22:44:05.140Z,12.95
2018-12-13T22:46:34.148Z,12.45
2018-12-13T22:49:04.397Z,10.93
2018-12-13T22:51:33.382Z,11.22
2018-12-13T22:54:02.461Z,11.60
2018-12-13T22:56:31.416Z,11.65
2018-12-13T22:59:00.674Z,12.18
2018-12-13T23:01:29.596Z,12.18
2018-12-13T23:03:58.557Z,12.20
2018-12-13T23:06:27.438Z,12.35
2018-12-13T23:08:56.404Z,13.05
2018-12-13T23:11:25.323Z,12.40
2018-12-13T23:13:54.235Z,11.80
2018-12-13T23:16:23.116Z,12.37
2018-12-13T23:18:52.057Z,12.55
2018-12-13T23:21:21.040Z,11.78
2018-12-13T23:23:50.053Z,11.75
2018-12-13T23:26:19.128Z,12.63
2018-12-13T23:28:48.028Z,12.93
2018-12-13T23:31:17.023Z,13.80
2018-12-13T23:33:45.948Z,12.13
2018-12-13T23:36:15.025Z,11.90
2018-12-13T23:38:43.941Z,12.95
2018-12-13T23:41:12.892Z,13.62
2018-12-13T23:43:42.061Z,18.17
2018-12-13T23:46:11.234Z,15.08
2018-12-13T23:48:40.158Z,12.60
2018-12-13T23:51:09.138Z,15.28
2018-12-13T23:53:38.405Z,13.75
2018-12-13T23:56:07.460Z,12.58
2018-12-13T23:58:36.763Z,14.50
